sensor_id;sensor_type;location;lat;lon;timestamp;P1;durP1;ratioP1;P2;durP2;ratioP2
44376;SDS011;30093;0.000;0.000;2022-08-19T00:02:59;11.85;;;9.63;;
44376;SDS011;30093;0.000;0.000;2022-08-19T00:06:47;15.82;;;9.60;;
44376;SDS011;30093;0.000;0.000;2022-08-19T00:10:35;16.05;;;10.38;;
44376;SDS011;30093;0.000;0.000;2022-08-19T00:14:25;12.15;;;9.20;;
44376;SDS011;30093;0.000;0.000;2022-08-19T00:18:15;13.60;;;10.32;;
44376;SDS011;30093;0.000;0.000;2022-08-19T00:22:03;13.63;;;10.18;;
44376;SDS011;30093;0.000;0.000;2022-08-19T00:25:52;12.75;;;10.27;;
44376;SDS011;30093;0.000;0.000;2022-08-19T00:29:42;13.15;;;9.10;;
44376;SDS011;30093;0.000;0.000;2022-08-19T00:33:31;11.88;;;10.55;;
44376;SDS011;30093;0.000;0.000;2022-08-19T00:37:21;13.48;;;9.80;;
44376;SDS011;30093;0.000;0.000;2022-08-19T00:41:14;15.65;;;11.00;;
44376;SDS011;30093;0.000;0.000;2022-08-19T00:45:21;13.95;;;11.13;;
44376;SDS011;30093;0.000;0.000;2022-08-19T00:53:12;15.40;;;11.05;;
44376;SDS011;30093;0.000;0.000;2022-08-19T00:57:04;12.65;;;10.50;;
44376;SDS011;30093;0.000;0.000;2022-08-19T01:01:07;13.40;;;10.05;;
44376;SDS011;30093;0.000;0.000;2022-08-19T01:04:55;17.13;;;11.57;;
44376;SDS011;30093;0.000;0.000;2022-08-19T01:08:44;14.73;;;10.73;;
44376;SDS011;30093;0.000;0.000;2022-08-19T01:12:33;13.35;;;10.82;;
44376;SDS011;30093;0.000;0.000;2022-08-19T01:16:22;14.93;;;11.25;;
44376;SDS011;30093;0.000;0.000;2022-08-19T01:20:16;16.50;;;10.15;;
44376;SDS011;30093;0.000;0.000;2022-08-19T01:24:07;15.63;;;10.68;;
44376;SDS011;30093;0.000;0.000;2022-08-19T01:27:56;14.73;;;11.30;;
44376;SDS011;30093;0.000;0.000;2022-08-19T01:31:45;15.95;;;11.02;;
44376;SDS011;30093;0.000;0.000;2022-08-19T01:35:40;15.88;;;12.05;;
44376;SDS011;30093;0.000;0.000;2022-08-19T01:39:28;14.57;;;12.20;;
44376;SDS011;30093;0.000;0.000;2022-08-19T01:43:16;13.90;;;11.68;;
44376;SDS011;30093;0.000;0.000;2022-08-19T01:47:06;17.13;;;12.63;;
44376;SDS011;30093;0.000;0.000;2022-08-19T01:50:56;12.63;;;11.38;;
44376;SDS011;30093;0.000;0.000;2022-08-19T01:54:45;15.88;;;12.02;;
44376;SDS011;30093;0.000;0.000;2022-08-19T01:58:36;13.50;;;11.93;;
44376;SDS011;30093;0.000;0.000;2022-08-19T02:02:28;13.38;;;11.98;;
44376;SDS011;30093;0.000;0.000;2022-08-19T02:06:17;13.18;;;11.00;;
44376;SDS011;30093;0.000;0.000;2022-08-19T02:10:07;17.40;;;12.27;;
44376;SDS011;30093;0.000;0.000;2022-08-19T02:13:58;13.10;;;11.70;;
44376;SDS011;30093;0.000;0.000;2022-08-19T02:17:48;12.75;;;11.23;;
44376;SDS011;30093;0.000;0.000;2022-08-19T02:21:37;15.13;;;12.18;;
44376;SDS011;30093;0.000;0.000;2022-08-19T02:25:26;15.57;;;12.97;;
44376;SDS011;30093;0.000;0.000;2022-08-19T02:29:15;17.13;;;12.82;;
44376;SDS011;30093;0.000;0.000;2022-08-19T02:33:03;16.40;;;12.70;;
44376;SDS011;30093;0.000;0.000;2022-08-19T02:36:52;19.55;;;13.82;;
44376;SDS011;30093;0.000;0.000;2022-08-19T02:40:47;17.88;;;13.15;;
44376;SDS011;30093;0.000;0.000;2022-08-19T02:44:38;16.27;;;14.02;;
44376;SDS011;30093;0.000;0.000;2022-08-19T02:48:27;16.58;;;12.60;;
44376;SDS011;30093;0.000;0.000;2022-08-19T02:52:16;18.60;;;15.73;;
44376;SDS011;30093;0.000;0.000;2022-08-19T02:56:06;17.80;;;14.60;;
44376;SDS011;30093;0.000;0.000;2022-08-19T03:03:42;24.60;;;14.35;;
44376;SDS011;30093;0.000;0.000;2022-08-19T03:07:31;18.42;;;15.48;;
44376;SDS011;30093;0.000;0.000;2022-08-19T03:11:23;22.45;;;15.32;;
44376;SDS011;30093;0.000;0.000;2022-08-19T03:15:14;21.42;;;15.10;;
44376;SDS011;30093;0.000;0.000;2022-08-19T03:19:02;20.85;;;15.48;;
44376;SDS011;30093;0.000;0.000;2022-08-19T03:22:52;21.53;;;14.90;;
44376;SDS011;30093;0.000;0.000;2022-08-19T03:26:40;22.33;;;14.80;;
44376;SDS011;30093;0.000;0.000;2022-08-19T03:30:31;17.60;;;14.60;;
44376;SDS011;30093;0.000;0.000;2022-08-19T03:34:23;22.63;;;14.82;;
44376;SDS011;30093;0.000;0.000;2022-08-19T03:38:14;18.33;;;14.65;;
44376;SDS011;30093;0.000;0.000;2022-08-19T03:42:02;17.08;;;13.35;;
44376;SDS011;30093;0.000;0.000;2022-08-19T03:45:59;16.83;;;14.13;;
44376;SDS011;30093;0.000;0.000;2022-08-19T03:49:54;21.45;;;14.52;;
44376;SDS011;30093;0.000;0.000;2022-08-19T03:53:43;14.75;;;13.35;;
44376;SDS011;30093;0.000;0.000;2022-08-19T03:57:32;21.13;;;14.48;;
44376;SDS011;30093;0.000;0.000;2022-08-19T04:01:23;22.98;;;15.82;;
44376;SDS011;30093;0.000;0.000;2022-08-19T04:05:17;23.80;;;14.77;;
44376;SDS011;30093;0.000;0.000;2022-08-19T04:09:06;20.10;;;15.25;;
44376;SDS011;30093;0.000;0.000;2022-08-19T04:12:57;23.42;;;14.35;;
44376;SDS011;30093;0.000;0.000;2022-08-19T04:16:46;28.50;;;15.38;;
44376;SDS011;30093;0.000;0.000;2022-08-19T04:20:39;14.97;;;12.67;;
44376;SDS011;30093;0.000;0.000;2022-08-19T04:24:32;21.23;;;15.70;;
44376;SDS011;30093;0.000;0.000;2022-08-19T04:32:11;19.92;;;13.63;;
44376;SDS011;30093;0.000;0.000;2022-08-19T04:36:01;20.33;;;13.52;;
44376;SDS011;30093;0.000;0.000;2022-08-19T04:39:52;16.33;;;13.25;;
44376;SDS011;30093;0.000;0.000;2022-08-19T04:43:59;20.63;;;13.98;;
44376;SDS011;30093;0.000;0.000;2022-08-19T04:47:47;13.80;;;12.45;;
44376;SDS011;30093;0.000;0.000;2022-08-19T04:51:39;15.27;;;13.20;;
44376;SDS011;30093;0.000;0.000;2022-08-19T04:55:31;14.75;;;13.27;;
44376;SDS011;30093;0.000;0.000;2022-08-19T04:59:20;18.98;;;13.63;;
44376;SDS011;30093;0.000;0.000;2022-08-19T05:03:09;14.40;;;12.60;;
44376;SDS011;30093;0.000;0.000;2022-08-19T05:06:58;15.30;;;12.37;;
44376;SDS011;30093;0.000;0.000;2022-08-19T05:10:49;14.88;;;11.57;;
44376;SDS011;30093;0.000;0.000;2022-08-19T05:14:38;13.27;;;11.60;;
44376;SDS011;30093;0.000;0.000;2022-08-19T05:18:27;12.25;;;10.80;;
44376;SDS011;30093;0.000;0.000;2022-08-19T05:22:34;15.27;;;11.15;;
44376;SDS011;30093;0.000;0.000;2022-08-19T05:26:23;13.73;;;10.48;;
44376;SDS011;30093;0.000;0.000;2022-08-19T05:30:13;14.13;;;10.90;;
44376;SDS011;30093;0.000;0.000;2022-08-19T05:34:02;16.80;;;11.07;;
44376;SDS011;30093;0.000;0.000;2022-08-19T05:37:52;10.98;;;9.85;;
44376;SDS011;30093;0.000;0.000;2022-08-19T05:41:43;16.23;;;10.05;;
44376;SDS011;30093;0.000;0.000;2022-08-19T05:45:37;13.90;;;10.93;;
44376;SDS011;30093;0.000;0.000;2022-08-19T05:49:30;20.67;;;9.95;;
44376;SDS011;30093;0.000;0.000;2022-08-19T05:53:19;15.18;;;9.43;;
44376;SDS011;30093;0.000;0.000;2022-08-19T05:57:08;11.55;;;9.20;;
44376;SDS011;30093;0.000;0.000;2022-08-19T06:00:56;12.75;;;9.23;;
44376;SDS011;30093;0.000;0.000;2022-08-19T06:04:45;12.60;;;9.07;;
44376;SDS011;30093;0.000;0.000;2022-08-19T06:08:34;10.30;;;8.25;;
44376;SDS011;30093;0.000;0.000;2022-08-19T06:12:24;10.48;;;8.43;;
44376;SDS011;30093;0.000;0.000;2022-08-19T06:16:17;15.23;;;8.85;;
44376;SDS011;30093;0.000;0.000;2022-08-19T06:20:10;10.48;;;7.93;;
44376;SDS011;30093;0.000;0.000;2022-08-19T06:24:01;8.55;;;7.65;;
44376;SDS011;30093;0.000;0.000;2022-08-19T06:27:50;11.10;;;8.15;;
44376;SDS011;30093;0.000;0.000;2022-08-19T06:31:43;13.52;;;7.72;;
44376;SDS011;30093;0.000;0.000;2022-08-19T06:35:37;9.73;;;7.43;;
44376;SDS011;30093;0.000;0.000;2022-08-19T06:39:28;11.18;;;8.15;;
44376;SDS011;30093;0.000;0.000;2022-08-19T06:43:20;10.88;;;7.47;;
44376;SDS011;30093;0.000;0.000;2022-08-19T06:47:12;10.13;;;7.28;;
44376;SDS011;30093;0.000;0.000;2022-08-19T06:51:03;14.30;;;7.53;;
44376;SDS011;30093;0.000;0.000;2022-08-19T06:54:53;12.55;;;7.90;;
44376;SDS011;30093;0.000;0.000;2022-08-19T06:58:43;11.27;;;7.55;;
44376;SDS011;30093;0.000;0.000;2022-08-19T07:02:32;14.60;;;7.22;;
44376;SDS011;30093;0.000;0.000;2022-08-19T07:06:25;13.10;;;6.93;;
44376;SDS011;30093;0.000;0.000;2022-08-19T07:10:13;19.33;;;7.53;;
44376;SDS011;30093;0.000;0.000;2022-08-19T07:14:02;8.27;;;6.57;;
44376;SDS011;30093;0.000;0.000;2022-08-19T07:17:51;13.20;;;7.07;;
44376;SDS011;30093;0.000;0.000;2022-08-19T07:21:40;12.60;;;8.75;;
44376;SDS011;30093;0.000;0.000;2022-08-19T07:25:29;20.58;;;8.82;;
44376;SDS011;30093;0.000;0.000;2022-08-19T07:29:17;15.13;;;9.68;;
44376;SDS011;30093;0.000;0.000;2022-08-19T07:33:10;15.95;;;9.23;;
44376;SDS011;30093;0.000;0.000;2022-08-19T07:36:58;14.70;;;8.43;;
44376;SDS011;30093;0.000;0.000;2022-08-19T07:40:47;11.35;;;7.75;;
44376;SDS011;30093;0.000;0.000;2022-08-19T07:44:36;13.65;;;8.27;;
44376;SDS011;30093;0.000;0.000;2022-08-19T07:48:25;10.75;;;7.00;;
44376;SDS011;30093;0.000;0.000;2022-08-19T07:52:15;13.15;;;6.70;;
44376;SDS011;30093;0.000;0.000;2022-08-19T07:56:04;9.95;;;7.30;;
44376;SDS011;30093;0.000;0.000;2022-08-19T07:59:53;10.18;;;7.10;;
44376;SDS011;30093;0.000;0.000;2022-08-19T08:03:42;9.18;;;6.80;;
44376;SDS011;30093;0.000;0.000;2022-08-19T08:07:49;11.63;;;6.25;;
44376;SDS011;30093;0.000;0.000;2022-08-19T08:11:58;11.27;;;6.95;;
44376;SDS011;30093;0.000;0.000;2022-08-19T08:15:49;13.98;;;7.07;;
44376;SDS011;30093;0.000;0.000;2022-08-19T08:19:37;16.33;;;7.40;;
44376;SDS011;30093;0.000;0.000;2022-08-19T08:23:28;13.38;;;6.88;;
44376;SDS011;30093;0.000;0.000;2022-08-19T08:27:17;11.32;;;6.40;;
44376;SDS011;30093;0.000;0.000;2022-08-19T08:31:06;8.80;;;6.70;;
44376;SDS011;30093;0.000;0.000;2022-08-19T08:34:54;15.30;;;6.22;;
44376;SDS011;30093;0.000;0.000;2022-08-19T08:38:43;10.77;;;6.53;;
44376;SDS011;30093;0.000;0.000;2022-08-19T08:42:34;12.10;;;6.60;;
44376;SDS011;30093;0.000;0.000;2022-08-19T08:50:29;11.82;;;6.75;;
44376;SDS011;30093;0.000;0.000;2022-08-19T08:54:24;9.48;;;6.00;;
44376;SDS011;30093;0.000;0.000;2022-08-19T09:02:49;8.55;;;5.95;;
44376;SDS011;30093;0.000;0.000;2022-08-19T09:10:52;13.60;;;6.65;;
44376;SDS011;30093;0.000;0.000;2022-08-19T09:14:49;12.43;;;6.38;;
44376;SDS011;30093;0.000;0.000;2022-08-19T09:18:49;19.75;;;7.57;;
44376;SDS011;30093;0.000;0.000;2022-08-19T09:22:45;11.60;;;7.30;;
44376;SDS011;30093;0.000;0.000;2022-08-19T09:26:34;13.02;;;7.03;;
44376;SDS011;30093;0.000;0.000;2022-08-19T09:30:25;9.43;;;6.90;;
44376;SDS011;30093;0.000;0.000;2022-08-19T09:34:15;11.02;;;6.53;;
44376;SDS011;30093;0.000;0.000;2022-08-19T09:38:03;13.25;;;6.85;;
44376;SDS011;30093;0.000;0.000;2022-08-19T09:41:52;15.95;;;6.60;;
44376;SDS011;30093;0.000;0.000;2022-08-19T09:45:41;13.43;;;6.72;;
44376;SDS011;30093;0.000;0.000;2022-08-19T09:49:30;15.38;;;6.40;;
44376;SDS011;30093;0.000;0.000;2022-08-19T09:53:20;13.10;;;6.95;;
44376;SDS011;30093;0.000;0.000;2022-08-19T09:57:10;14.00;;;6.72;;
44376;SDS011;30093;0.000;0.000;2022-08-19T10:00:59;13.90;;;6.80;;
44376;SDS011;30093;0.000;0.000;2022-08-19T10:04:49;10.90;;;6.72;;
44376;SDS011;30093;0.000;0.000;2022-08-19T10:08:55;12.70;;;7.13;;
44376;SDS011;30093;0.000;0.000;2022-08-19T10:12:44;11.63;;;6.70;;
44376;SDS011;30093;0.000;0.000;2022-08-19T10:16:35;11.93;;;6.43;;
44376;SDS011;30093;0.000;0.000;2022-08-19T10:20:24;15.40;;;6.65;;
44376;SDS011;30093;0.000;0.000;2022-08-19T10:24:12;8.25;;;6.60;;
44376;SDS011;30093;0.000;0.000;2022-08-19T10:28:00;17.55;;;6.78;;
44376;SDS011;30093;0.000;0.000;2022-08-19T10:31:48;10.52;;;6.75;;
44376;SDS011;30093;0.000;0.000;2022-08-19T10:35:36;16.75;;;7.85;;
44376;SDS011;30093;0.000;0.000;2022-08-19T10:39:25;14.48;;;6.28;;
44376;SDS011;30093;0.000;0.000;2022-08-19T10:43:17;17.63;;;7.00;;
44376;SDS011;30093;0.000;0.000;2022-08-19T10:47:07;14.63;;;6.88;;
44376;SDS011;30093;0.000;0.000;2022-08-19T10:50:56;10.63;;;7.15;;
44376;SDS011;30093;0.000;0.000;2022-08-19T10:55:04;11.82;;;6.22;;
44376;SDS011;30093;0.000;0.000;2022-08-19T10:59:12;12.07;;;6.88;;
44376;SDS011;30093;0.000;0.000;2022-08-19T11:03:01;11.30;;;6.63;;
44376;SDS011;30093;0.000;0.000;2022-08-19T11:06:50;14.95;;;6.30;;
44376;SDS011;30093;0.000;0.000;2022-08-19T11:10:41;10.60;;;6.10;;
44376;SDS011;30093;0.000;0.000;2022-08-19T11:14:30;21.30;;;7.70;;
44376;SDS011;30093;0.000;0.000;2022-08-19T11:18:21;11.48;;;6.35;;
44376;SDS011;30093;0.000;0.000;2022-08-19T11:22:09;14.07;;;6.70;;
44376;SDS011;30093;0.000;0.000;2022-08-19T11:25:58;14.35;;;6.15;;
44376;SDS011;30093;0.000;0.000;2022-08-19T11:29:47;14.75;;;6.78;;
44376;SDS011;30093;0.000;0.000;2022-08-19T11:33:36;12.57;;;6.57;;
44376;SDS011;30093;0.000;0.000;2022-08-19T11:37:24;15.50;;;5.50;;
44376;SDS011;30093;0.000;0.000;2022-08-19T11:41:12;10.87;;;5.57;;
44376;SDS011;30093;0.000;0.000;2022-08-19T11:45:02;11.15;;;6.00;;
44376;SDS011;30093;0.000;0.000;2022-08-19T11:48:51;12.65;;;5.82;;
44376;SDS011;30093;0.000;0.000;2022-08-19T11:52:40;11.68;;;6.35;;
44376;SDS011;30093;0.000;0.000;2022-08-19T11:56:29;11.23;;;6.10;;
44376;SDS011;30093;0.000;0.000;2022-08-19T12:00:18;12.88;;;6.18;;
44376;SDS011;30093;0.000;0.000;2022-08-19T12:04:07;13.18;;;6.07;;
44376;SDS011;30093;0.000;0.000;2022-08-19T12:07:56;9.02;;;5.22;;
44376;SDS011;30093;0.000;0.000;2022-08-19T12:11:45;11.27;;;7.03;;
44376;SDS011;30093;0.000;0.000;2022-08-19T12:15:38;14.90;;;5.72;;
44376;SDS011;30093;0.000;0.000;2022-08-19T12:19:32;20.58;;;6.80;;
44376;SDS011;30093;0.000;0.000;2022-08-19T12:23:22;11.63;;;6.32;;
44376;SDS011;30093;0.000;0.000;2022-08-19T12:27:10;14.88;;;5.60;;
44376;SDS011;30093;0.000;0.000;2022-08-19T12:30:58;10.68;;;6.32;;
44376;SDS011;30093;0.000;0.000;2022-08-19T12:34:46;14.40;;;6.60;;
44376;SDS011;30093;0.000;0.000;2022-08-19T12:38:35;11.45;;;6.20;;
44376;SDS011;30093;0.000;0.000;2022-08-19T12:46:12;20.90;;;6.83;;
44376;SDS011;30093;0.000;0.000;2022-08-19T12:50:01;15.55;;;6.47;;
44376;SDS011;30093;0.000;0.000;2022-08-19T12:53:50;13.07;;;7.38;;
44376;SDS011;30093;0.000;0.000;2022-08-19T12:57:39;11.70;;;7.00;;
44376;SDS011;30093;0.000;0.000;2022-08-19T13:01:27;15.27;;;6.70;;
44376;SDS011;30093;0.000;0.000;2022-08-19T13:05:21;21.40;;;6.32;;
44376;SDS011;30093;0.000;0.000;2022-08-19T13:09:12;19.15;;;14.23;;
44376;SDS011;30093;0.000;0.000;2022-08-19T13:13:04;10.43;;;6.43;;
44376;SDS011;30093;0.000;0.000;2022-08-19T13:16:54;18.85;;;6.20;;
44376;SDS011;30093;0.000;0.000;2022-08-19T13:20:43;18.08;;;6.22;;
44376;SDS011;30093;0.000;0.000;2022-08-19T13:24:31;11.60;;;6.30;;
44376;SDS011;30093;0.000;0.000;2022-08-19T13:28:20;12.20;;;6.43;;
44376;SDS011;30093;0.000;0.000;2022-08-19T13:32:08;18.25;;;7.45;;
44376;SDS011;30093;0.000;0.000;2022-08-19T13:36:15;10.70;;;7.43;;
44376;SDS011;30093;0.000;0.000;2022-08-19T13:40:03;14.82;;;7.68;;
44376;SDS011;30093;0.000;0.000;2022-08-19T13:43:53;11.70;;;7.97;;
44376;SDS011;30093;0.000;0.000;2022-08-19T13:47:42;11.30;;;7.88;;
44376;SDS011;30093;0.000;0.000;2022-08-19T13:51:33;17.67;;;8.10;;
44376;SDS011;30093;0.000;0.000;2022-08-19T13:55:23;14.50;;;8.38;;
44376;SDS011;30093;0.000;0.000;2022-08-19T13:59:12;16.70;;;7.78;;
44376;SDS011;30093;0.000;0.000;2022-08-19T14:03:14;16.17;;;8.00;;
44376;SDS011;30093;0.000;0.000;2022-08-19T14:07:03;15.85;;;7.57;;
44376;SDS011;30093;0.000;0.000;2022-08-19T14:10:52;12.85;;;7.60;;
44376;SDS011;30093;0.000;0.000;2022-08-19T14:14:40;17.85;;;7.90;;
44376;SDS011;30093;0.000;0.000;2022-08-19T14:18:29;14.18;;;7.50;;
44376;SDS011;30093;0.000;0.000;2022-08-19T14:22:17;11.52;;;6.88;;
44376;SDS011;30093;0.000;0.000;2022-08-19T14:26:08;9.23;;;6.60;;
44376;SDS011;30093;0.000;0.000;2022-08-19T14:29:59;9.43;;;6.45;;
44376;SDS011;30093;0.000;0.000;2022-08-19T14:33:47;13.65;;;6.80;;
44376;SDS011;30093;0.000;0.000;2022-08-19T14:37:36;14.85;;;7.22;;
44376;SDS011;30093;0.000;0.000;2022-08-19T14:41:26;15.20;;;7.35;;
44376;SDS011;30093;0.000;0.000;2022-08-19T14:45:14;13.73;;;7.73;;
44376;SDS011;30093;0.000;0.000;2022-08-19T14:49:03;10.88;;;8.05;;
44376;SDS011;30093;0.000;0.000;2022-08-19T14:53:08;15.90;;;8.38;;
44376;SDS011;30093;0.000;0.000;2022-08-19T14:56:57;29.50;;;20.38;;
44376;SDS011;30093;0.000;0.000;2022-08-19T15:00:46;16.67;;;10.00;;
44376;SDS011;30093;0.000;0.000;2022-08-19T15:04:35;14.82;;;9.77;;
44376;SDS011;30093;0.000;0.000;2022-08-19T15:08:23;18.73;;;11.60;;
44376;SDS011;30093;0.000;0.000;2022-08-19T15:12:12;25.02;;;11.57;;
44376;SDS011;30093;0.000;0.000;2022-08-19T15:16:01;22.15;;;12.05;;
44376;SDS011;30093;0.000;0.000;2022-08-19T15:23:38;19.75;;;10.43;;
44376;SDS011;30093;0.000;0.000;2022-08-19T15:27:28;17.90;;;9.60;;
44376;SDS011;30093;0.000;0.000;2022-08-19T15:31:18;18.63;;;8.90;;
44376;SDS011;30093;0.000;0.000;2022-08-19T15:35:09;14.93;;;9.43;;
44376;SDS011;30093;0.000;0.000;2022-08-19T15:38:57;15.25;;;7.63;;
44376;SDS011;30093;0.000;0.000;2022-08-19T15:42:46;14.63;;;7.55;;
44376;SDS011;30093;0.000;0.000;2022-08-19T15:50:34;13.32;;;7.10;;
44376;SDS011;30093;0.000;0.000;2022-08-19T15:54:23;19.05;;;8.52;;
44376;SDS011;30093;0.000;0.000;2022-08-19T15:58:12;25.73;;;9.90;;
44376;SDS011;30093;0.000;0.000;2022-08-19T16:02:22;16.67;;;9.17;;
44376;SDS011;30093;0.000;0.000;2022-08-19T16:06:30;18.40;;;9.35;;
44376;SDS011;30093;0.000;0.000;2022-08-19T16:10:19;23.83;;;10.23;;
44376;SDS011;30093;0.000;0.000;2022-08-19T16:14:08;19.67;;;10.27;;
44376;SDS011;30093;0.000;0.000;2022-08-19T16:18:01;22.50;;;8.98;;
44376;SDS011;30093;0.000;0.000;2022-08-19T16:26:16;24.23;;;10.57;;
44376;SDS011;30093;0.000;0.000;2022-08-19T16:30:06;22.40;;;10.15;;
44376;SDS011;30093;0.000;0.000;2022-08-19T16:38:21;15.93;;;7.45;;
44376;SDS011;30093;0.000;0.000;2022-08-19T16:42:11;17.27;;;6.30;;
44376;SDS011;30093;0.000;0.000;2022-08-19T16:49:49;17.92;;;9.32;;
44376;SDS011;30093;0.000;0.000;2022-08-19T16:53:38;16.53;;;8.10;;
44376;SDS011;30093;0.000;0.000;2022-08-19T16:57:27;37.85;;;9.73;;
44376;SDS011;30093;0.000;0.000;2022-08-19T17:01:16;19.02;;;9.95;;
44376;SDS011;30093;0.000;0.000;2022-08-19T17:05:05;20.42;;;9.30;;
44376;SDS011;30093;0.000;0.000;2022-08-19T17:08:58;14.98;;;8.23;;
44376;SDS011;30093;0.000;0.000;2022-08-19T17:12:48;16.83;;;8.88;;
44376;SDS011;30093;0.000;0.000;2022-08-19T17:16:39;15.20;;;7.72;;
44376;SDS011;30093;0.000;0.000;2022-08-19T17:20:28;14.00;;;7.77;;
44376;SDS011;30093;0.000;0.000;2022-08-19T17:24:18;14.82;;;8.80;;
44376;SDS011;30093;0.000;0.000;2022-08-19T17:28:08;20.17;;;8.13;;
44376;SDS011;30093;0.000;0.000;2022-08-19T17:31:58;15.27;;;8.32;;
44376;SDS011;30093;0.000;0.000;2022-08-19T17:35:47;16.05;;;6.57;;
44376;SDS011;30093;0.000;0.000;2022-08-19T17:39:36;16.23;;;7.20;;
44376;SDS011;30093;0.000;0.000;2022-08-19T17:43:26;14.30;;;8.80;;
44376;SDS011;30093;0.000;0.000;2022-08-19T17:47:15;13.82;;;9.13;;
44376;SDS011;30093;0.000;0.000;2022-08-19T17:51:21;19.45;;;9.38;;
44376;SDS011;30093;0.000;0.000;2022-08-19T17:55:29;13.95;;;7.03;;
44376;SDS011;30093;0.000;0.000;2022-08-19T17:59:18;12.40;;;6.43;;
44376;SDS011;30093;0.000;0.000;2022-08-19T18:03:06;9.45;;;5.18;;
44376;SDS011;30093;0.000;0.000;2022-08-19T18:06:54;8.50;;;5.55;;
44376;SDS011;30093;0.000;0.000;2022-08-19T18:10:43;15.00;;;7.17;;
44376;SDS011;30093;0.000;0.000;2022-08-19T18:14:35;9.67;;;4.97;;
44376;SDS011;30093;0.000;0.000;2022-08-19T18:18:25;12.38;;;5.38;;
44376;SDS011;30093;0.000;0.000;2022-08-19T18:22:25;11.10;;;7.03;;
44376;SDS011;30093;0.000;0.000;2022-08-19T18:26:15;12.27;;;5.75;;
44376;SDS011;30093;0.000;0.000;2022-08-19T18:30:05;11.73;;;5.88;;
44376;SDS011;30093;0.000;0.000;2022-08-19T18:33:55;10.80;;;6.65;;
44376;SDS011;30093;0.000;0.000;2022-08-19T18:37:44;10.20;;;7.05;;
44376;SDS011;30093;0.000;0.000;2022-08-19T18:41:33;9.57;;;6.07;;
44376;SDS011;30093;0.000;0.000;2022-08-19T18:45:40;12.75;;;5.93;;
44376;SDS011;30093;0.000;0.000;2022-08-19T18:49:49;10.00;;;5.60;;
44376;SDS011;30093;0.000;0.000;2022-08-19T18:53:39;11.98;;;6.55;;
44376;SDS011;30093;0.000;0.000;2022-08-19T19:01:20;13.43;;;7.20;;
44376;SDS011;30093;0.000;0.000;2022-08-19T19:05:13;11.27;;;6.78;;
44376;SDS011;30093;0.000;0.000;2022-08-19T19:09:02;18.30;;;9.93;;
44376;SDS011;30093;0.000;0.000;2022-08-19T19:12:51;17.23;;;9.65;;
44376;SDS011;30093;0.000;0.000;2022-08-19T19:16:40;20.30;;;10.45;;
44376;SDS011;30093;0.000;0.000;2022-08-19T19:20:31;15.05;;;9.55;;
44376;SDS011;30093;0.000;0.000;2022-08-19T19:24:23;15.40;;;8.55;;
44376;SDS011;30093;0.000;0.000;2022-08-19T19:28:14;13.35;;;8.05;;
44376;SDS011;30093;0.000;0.000;2022-08-19T19:32:05;13.52;;;6.43;;
44376;SDS011;30093;0.000;0.000;2022-08-19T19:35:56;13.52;;;7.25;;
44376;SDS011;30093;0.000;0.000;2022-08-19T19:39:44;14.57;;;6.85;;
44376;SDS011;30093;0.000;0.000;2022-08-19T19:43:34;15.63;;;8.30;;
44376;SDS011;30093;0.000;0.000;2022-08-19T19:47:23;12.97;;;8.13;;
44376;SDS011;30093;0.000;0.000;2022-08-19T19:51:15;14.43;;;7.20;;
44376;SDS011;30093;0.000;0.000;2022-08-19T19:55:03;11.70;;;7.13;;
44376;SDS011;30093;0.000;0.000;2022-08-19T19:58:53;12.20;;;6.75;;
44376;SDS011;30093;0.000;0.000;2022-08-19T20:02:42;11.80;;;7.93;;
44376;SDS011;30093;0.000;0.000;2022-08-19T20:06:30;13.90;;;8.43;;
44376;SDS011;30093;0.000;0.000;2022-08-19T20:10:19;10.40;;;7.30;;
44376;SDS011;30093;0.000;0.000;2022-08-19T20:14:09;12.68;;;7.53;;
44376;SDS011;30093;0.000;0.000;2022-08-19T20:18:01;12.63;;;7.57;;
44376;SDS011;30093;0.000;0.000;2022-08-19T20:21:51;11.50;;;6.88;;
44376;SDS011;30093;0.000;0.000;2022-08-19T20:25:41;16.27;;;7.60;;
44376;SDS011;30093;0.000;0.000;2022-08-19T20:29:29;10.93;;;6.57;;
44376;SDS011;30093;0.000;0.000;2022-08-19T20:33:18;13.35;;;7.97;;
44376;SDS011;30093;0.000;0.000;2022-08-19T20:37:07;14.70;;;6.30;;
44376;SDS011;30093;0.000;0.000;2022-08-19T20:40:55;15.82;;;7.93;;
44376;SDS011;30093;0.000;0.000;2022-08-19T20:44:44;14.10;;;6.78;;
44376;SDS011;30093;0.000;0.000;2022-08-19T20:48:32;8.82;;;6.07;;
44376;SDS011;30093;0.000;0.000;2022-08-19T20:52:24;14.70;;;7.65;;
44376;SDS011;30093;0.000;0.000;2022-08-19T20:56:12;11.95;;;6.88;;
44376;SDS011;30093;0.000;0.000;2022-08-19T21:00:01;17.17;;;7.82;;
44376;SDS011;30093;0.000;0.000;2022-08-19T21:03:57;17.60;;;7.50;;
44376;SDS011;30093;0.000;0.000;2022-08-19T21:07:46;12.68;;;7.55;;
44376;SDS011;30093;0.000;0.000;2022-08-19T21:11:35;11.33;;;8.17;;
44376;SDS011;30093;0.000;0.000;2022-08-19T21:15:24;14.27;;;8.38;;
44376;SDS011;30093;0.000;0.000;2022-08-19T21:19:12;18.38;;;7.85;;
44376;SDS011;30093;0.000;0.000;2022-08-19T21:23:08;14.05;;;6.95;;
44376;SDS011;30093;0.000;0.000;2022-08-19T21:27:00;12.38;;;8.73;;
44376;SDS011;30093;0.000;0.000;2022-08-19T21:30:49;14.38;;;8.32;;
44376;SDS011;30093;0.000;0.000;2022-08-19T21:34:38;15.50;;;9.38;;
44376;SDS011;30093;0.000;0.000;2022-08-19T21:38:25;19.85;;;9.90;;
44376;SDS011;30093;0.000;0.000;2022-08-19T21:42:15;13.70;;;9.13;;
44376;SDS011;30093;0.000;0.000;2022-08-19T21:46:04;13.95;;;9.40;;
44376;SDS011;30093;0.000;0.000;2022-08-19T21:49:53;15.95;;;8.80;;
44376;SDS011;30093;0.000;0.000;2022-08-19T21:53:42;14.43;;;9.80;;
44376;SDS011;30093;0.000;0.000;2022-08-19T21:57:30;14.93;;;9.68;;
44376;SDS011;30093;0.000;0.000;2022-08-19T22:01:19;13.57;;;8.98;;
44376;SDS011;30093;0.000;0.000;2022-08-19T22:05:08;9.50;;;8.38;;
44376;SDS011;30093;0.000;0.000;2022-08-19T22:08:57;13.00;;;9.60;;
44376;SDS011;30093;0.000;0.000;2022-08-19T22:12:45;14.90;;;8.90;;
44376;SDS011;30093;0.000;0.000;2022-08-19T22:16:35;12.73;;;8.15;;
44376;SDS011;30093;0.000;0.000;2022-08-19T22:20:25;13.60;;;9.60;;
44376;SDS011;30093;0.000;0.000;2022-08-19T22:24:14;15.85;;;8.32;;
44376;SDS011;30093;0.000;0.000;2022-08-19T22:28:05;13.10;;;8.55;;
44376;SDS011;30093;0.000;0.000;2022-08-19T22:31:56;16.45;;;11.07;;
44376;SDS011;30093;0.000;0.000;2022-08-19T22:35:45;15.90;;;10.52;;
44376;SDS011;30093;0.000;0.000;2022-08-19T22:39:34;15.20;;;10.65;;
44376;SDS011;30093;0.000;0.000;2022-08-19T22:43:24;15.73;;;10.57;;
44376;SDS011;30093;0.000;0.000;2022-08-19T22:47:17;18.77;;;11.27;;
44376;SDS011;30093;0.000;0.000;2022-08-19T22:51:05;16.52;;;11.38;;
44376;SDS011;30093;0.000;0.000;2022-08-19T22:55:12;20.38;;;12.32;;
44376;SDS011;30093;0.000;0.000;2022-08-19T22:59:01;16.75;;;12.20;;
44376;SDS011;30093;0.000;0.000;2022-08-19T23:02:49;17.95;;;11.82;;
44376;SDS011;30093;0.000;0.000;2022-08-19T23:06:38;22.08;;;12.70;;
44376;SDS011;30093;0.000;0.000;2022-08-19T23:10:27;19.50;;;11.33;;
44376;SDS011;30093;0.000;0.000;2022-08-19T23:14:15;16.02;;;11.27;;
44376;SDS011;30093;0.000;0.000;2022-08-19T23:21:54;11.83;;;10.70;;
44376;SDS011;30093;0.000;0.000;2022-08-19T23:25:43;19.00;;;11.52;;
44376;SDS011;30093;0.000;0.000;2022-08-19T23:33:41;18.15;;;10.05;;
44376;SDS011;30093;0.000;0.000;2022-08-19T23:37:31;22.13;;;12.85;;
44376;SDS011;30093;0.000;0.000;2022-08-19T23:41:20;20.75;;;12.25;;
44376;SDS011;30093;0.000;0.000;2022-08-19T23:45:10;19.33;;;11.55;;
44376;SDS011;30093;0.000;0.000;2022-08-19T23:48:59;18.10;;;11.52;;
44376;SDS011;30093;0.000;0.000;2022-08-19T23:52:57;19.75;;;10.88;;
44376;SDS011;30093;0.000;0.000;2022-08-19T23:56:47;14.05;;;10.93;;
